• Join FlightAware (Why Join?)
  • Login
  • US Flag 
03:13AM EST


 

Airport Tracker/Info


-or-


 

Live Flight TrackerFlight Track Log ✈ CSJ405 ✈ 08-May-2013 ✈ CYHM - CYMX

Flight Track Log - Related Links

Times and Time Zones

All times are in EDT time to prevent confusion due to time zone crossing. See the CSJ405 flight status page for this flight to view local times or setup timezone preferences in your user account.

Time Position Orientation Groundspeed Altitude Reporting Facility
EDT Latitude Longitude Course Direction KTS MPH feet Rate Location/Type
01:46AM 43.1667 -79.9000 90° East 10 12 800  Level Toronto Center
01:53AM 43.1500 -79.8667 124° Southeast 70 81 1,900 180 Climbing Toronto Center
01:54AM 43.1500 -79.8333 90° East 80 92 2,400 540 Climbing Toronto Center
01:55AM 43.1500 -79.8167 90° East 80 92 3,000 600 Climbing Toronto Center
01:56AM 43.1500 -79.5429 90° East  Level FlightAware Approximate
01:56AM 43.1333 -79.8000 144° Southeast 80 92 3,600  Level Toronto Center
01:57AM 43.1500 -79.4776 90° East  Level FlightAware Approximate
01:57AM 43.1333 -79.7500 90° East 90 104 4,200  Level Toronto Center
01:58AM 43.1500 -79.7167 56° Northeast 110 127 4,700 480 Climbing Toronto Center
01:59AM 43.1667 -79.6833 56° Northeast 110 127 5,200 540 Climbing Toronto Center
02:00AM 43.2000 -79.6500 36° Northeast 110 127 5,800 540 Climbing Toronto Center
02:01AM 43.2000 -79.6167 90° East 110 127 6,300 540 Climbing Toronto Center
02:02AM 43.2333 -79.5833 36° Northeast 110 127 6,900 480 Climbing Toronto Center
02:04AM 43.2667 -79.5000 61° Northeast 110 127 7,900 480 Climbing Toronto Center
02:05AM 43.2833 -79.4667 56° Northeast 110 127 8,400 420 Climbing Toronto Center
02:06AM 43.3000 -79.4333 56° Northeast 110 127 8,800 360 Climbing Toronto Center
02:07AM 43.3167 -79.4000 55° Northeast 110 127 9,200 540 Climbing Toronto Center
02:08AM 43.3333 -79.3500 65° Northeast 110 127 9,900 540 Climbing Toronto Center
02:09AM 43.3500 -79.3333 36° Northeast 110 127 10,300 420 Climbing Toronto Center
02:10AM 43.3667 -79.2833 65° Northeast 120 138 10,800 300 Climbing Toronto Center
02:11AM 43.3833 -79.2500 55° Northeast 120 138 11,000 60 Climbing Toronto Center
02:12AM 43.4000 -79.2000 65° Northeast 140 161 11,000  Level Toronto Center
02:13AM 43.4333 -79.1500 47° Northeast 150 173 11,000  Level Toronto Center
02:14AM 43.4500 -79.1000 65° Northeast 150 173 11,000  Level Toronto Center
02:15AM 43.4667 -79.0667 55° Northeast 160 184 11,000  Level Toronto Center
02:16AM 43.5000 -79.0167 47° Northeast 160 184 11,000  Level Toronto Center
02:17AM 43.5167 -78.9667 65° Northeast 160 184 11,000  Level Toronto Center
02:18AM 43.5500 -78.9000 55° Northeast 150 173 11,000  Level Toronto Center
02:19AM 43.5667 -78.8500 65° Northeast 150 173 11,000  Level Toronto Center
02:20AM 43.6000 -78.8000 47° Northeast 160 184 11,000  Level Toronto Center
02:21AM 43.6167 -78.7500 65° Northeast 150 173 11,000  Level Toronto Center
02:22AM 43.6333 -78.7167 55° Northeast 150 173 11,000  Level Toronto Center
02:23AM 43.6667 -78.6667 47° Northeast 150 173 11,000  Level Toronto Center
02:24AM 43.6833 -78.6167 65° Northeast 150 173 11,000  Level Toronto Center
02:25AM 43.7167 -78.5667 47° Northeast 150 173 11,000  Level Toronto Center
02:26AM 43.7333 -78.5000 71° East 150 173 11,000  Level Toronto Center
02:27AM 43.7500 -78.4500 65° Northeast 150 173 11,000  Level Toronto Center
02:28AM 43.7667 -78.4167 55° Northeast 150 173 11,000  Level Toronto Center
02:29AM 43.7833 -78.3667 65° Northeast 150 173 11,000  Level Toronto Center
02:30AM 43.8167 -78.3167 47° Northeast 150 173 11,000  Level Toronto Center
02:31AM 43.8333 -78.2667 65° Northeast 160 184 11,000  Level Toronto Center
02:32AM 43.8667 -78.2167 47° Northeast 160 184 11,000  Level Toronto Center
02:33AM 43.8833 -78.1500 71° East 160 184 11,000  Level Toronto Center
02:34AM 43.9167 -78.1000 47° Northeast 160 184 11,000  Level Toronto Center
02:35AM 43.9333 -78.0500 65° Northeast 160 184 11,000  Level Toronto Center
02:36AM 43.9667 -77.9833 55° Northeast 160 184 11,000  Level Toronto Center
02:37AM 43.9833 -77.9333 65° Northeast 160 184 11,000  Level Toronto Center
02:38AM 44.0167 -77.9000 36° Northeast 160 184 11,000  Level Toronto Center
02:39AM 44.0333 -77.8500 65° Northeast 160 184 11,000  Level Toronto Center
02:40AM 44.0667 -77.7833 55° Northeast 160 184 11,000  Level Toronto Center
02:41AM 44.0833 -77.7333 65° Northeast 170 196 11,000  Level Toronto Center
02:42AM 44.1167 -77.6833 47° Northeast 160 184 11,000  Level Toronto Center
02:43AM 44.1333 -77.6333 65° Northeast 160 184 11,000  Level Toronto Center
02:44AM 44.1667 -77.5667 55° Northeast 170 196 11,000  Level Toronto Center
02:45AM 44.1833 -77.5167 65° Northeast 160 184 11,000  Level Toronto Center
02:46AM 44.2167 -77.4667 47° Northeast 160 184 11,000  Level Toronto Center
02:47AM 44.2333 -77.4000 71° East 160 184 11,000  Level Toronto Center
02:48AM 44.2500 -77.3500 65° Northeast 160 184 11,000  Level Toronto Center
02:49AM 44.2667 -77.3000 65° Northeast 160 184 11,000  Level Toronto Center
02:50AM 44.3000 -77.2333 55° Northeast 160 184 11,000  Level Toronto Center
02:51AM 44.3167 -77.1833 65° Northeast 170 196 11,000  Level Toronto Center
02:52AM 44.3500 -77.1333 47° Northeast 160 184 11,000  Level Toronto Center
02:53AM 44.3667 -77.0833 65° Northeast 160 184 11,000  Level Toronto Center
02:53AM 44.3833 -77.1000 324° Northwest 160 184 11,000  Level Montreal Center
02:54AM 44.4000 -77.0500 65° Northeast 160 184 11,000  Level Montreal Center
02:55AM 44.4333 -76.9833 55° Northeast 160 184 11,000  Level Montreal Center
02:57AM 44.4667 -76.8500 71° East 170 196 11,000  Level Toronto Center
02:57AM 44.4833 -76.8833 305° West 160 184 11,000  Level Montreal Center
02:58AM 44.5000 -76.8167 71° East 160 184 11,000  Level Montreal Center
03:00AM 44.5500 -76.7000 59° Northeast 160 184 11,000  Level Toronto Center
03:00AM 44.5500 -76.7167 270° West 160 184 11,000  Level Montreal Center
03:01AM 44.5667 -76.6500 71° East 160 184 11,000  Level Montreal Center
03:02AM 44.5833 -76.5833 71° East 160 184 11,000  Level Toronto Center
03:03AM 44.6000 -76.5333 65° Northeast 160 184 11,000  Level Toronto Center
03:04AM 44.6333 -76.5000 35° Northeast 160 184 11,000  Level Toronto Center
03:05AM 44.6500 -76.4500 65° Northeast 160 184 11,000  Level Toronto Center
03:06AM 44.6833 -76.3667 61° Northeast 160 184 11,000  Level Toronto Center
03:06AM 44.6833 -76.4000 270° West 160 184 11,000  Level Montreal Center
03:07AM 44.7000 -76.3500 65° Northeast 160 184 11,000  Level Montreal Center
03:08AM 44.7333 -76.2667 61° Northeast 160 184 11,000  Level Montreal Center
03:09AM 44.7500 -76.2333 55° Northeast 160 184 11,000  Level Montreal Center
03:10AM 44.7833 -76.1833 47° Northeast 160 184 11,000  Level Montreal Center
03:11AM 44.8000 -76.1167 71° East 160 184 11,000  Level Montreal Center
03:12AM 44.8167 -76.0667 65° Northeast 160 184 11,000  Level Montreal Center
03:13AM 44.8500 -76.0167 47° Northeast 160 184 11,000  Level Montreal Center
03:14AM 44.8667 -75.9500 71° East 160 184 11,000  Level Montreal Center
03:15AM 44.8833 -75.9000 65° Northeast 160 184 11,000  Level Montreal Center
03:16AM 44.9167 -75.8500 47° Northeast 160 184 11,000  Level Montreal Center
03:17AM 44.9333 -75.8000 65° Northeast 160 184 11,000  Level Montreal Center
03:18AM 44.9500 -75.7333 71° East 160 184 11,000  Level Montreal Center
03:19AM 44.9833 -75.6833 47° Northeast 160 184 11,000  Level Montreal Center
03:20AM 45.0000 -75.6333 65° Northeast 160 184 11,000  Level Montreal Center
03:21AM 45.0167 -75.5833 65° Northeast 160 184 11,000  Level Montreal Center
03:22AM 45.0500 -75.5167 55° Northeast 160 184 11,000  Level Montreal Center
03:24AM 45.0833 -75.4000 68° East 150 173 11,000  Level Toronto Center
03:24AM 45.0833 -75.4167 270° West 150 173 11,000  Level Montreal Center
03:25AM 45.1167 -75.3667 47° Northeast 160 184 11,000  Level Montreal Center
03:26AM 45.1333 -75.3333 55° Northeast 160 184 11,000  Level Montreal Center
03:27AM 45.1500 -75.2500 74° East 160 184 11,000  Level Montreal Center
03:28AM 45.1833 -75.2000 47° Northeast 160 184 11,000  Level Montreal Center
03:29AM 45.2000 -75.1667 55° Northeast 160 184 11,000  Level Montreal Center
03:30AM 45.2333 -75.0833 60° Northeast 160 184 11,000  Level Montreal Center
03:31AM 45.2500 -75.0333 65° Northeast 160 184 11,000  Level Montreal Center
03:32AM 45.2667 -75.0000 55° Northeast 160 184 11,000 -480 Level Montreal Center
03:33AM 45.3000 -74.9167 60° Northeast 180 207 10,100 -840 Descending Montreal Center
03:34AM 45.3167 -74.8667 65° Northeast 190 219 9,400 -600 Descending Montreal Center
03:35AM 45.3500 -74.8000 55° Northeast 180 207 8,900 -540 Descending Montreal Center
03:36AM 45.3833 -74.7500 46° Northeast 180 207 8,400 -480 Descending Montreal Center
03:37AM 45.4000 -74.6833 70° East 170 196 8,000 -240 Descending Montreal Center
03:38AM 45.4167 -74.6333 65° Northeast 170 196 8,000 -180 Level Montreal Center
03:39AM 45.4500 -74.5667 55° Northeast 160 184 7,700 -360 Descending Montreal Center
03:40AM 45.4667 -74.5167 65° Northeast 170 196 7,300 -540 Descending Montreal Center
03:41AM 45.5000 -74.4333 60° Northeast 180 207 6,700 -600 Descending Montreal Center
03:42AM 45.5167 -74.3833 65° Northeast 180 207 6,100 -780 Descending Montreal Center
03:43AM 45.5333 -74.3167 70° East 190 219 5,200 -900 Descending Montreal Center
03:44AM 45.5500 -74.2500 70° East 190 219 4,400 -840 Descending Montreal Center
03:45AM 45.5833 -74.1667 60° Northeast 190 219 3,600 -1,020 Descending Montreal Center
03:46AM 45.6000 -74.1167 65° Northeast 170 196 2,400 -1,200 Descending Montreal Center
03:47AM 45.6333 -74.0667 46° Northeast 150 173 1,300 -900 Descending Montreal Center
03:48AM 45.6500 -74.0333 54° Northeast 130 150 700 -540 Descending Montreal Center
03:49AM 45.6500 -74.0000 90° East 100 115 300 -420 Descending Montreal Center